createdAt,value
2018-10-02T00:03:15.842Z,100408.00
2018-10-02T00:08:19.115Z,100404.81
2018-10-02T00:13:27.662Z,100408.19
2018-10-02T00:18:31.039Z,100406.62
2018-10-02T00:23:34.404Z,100407.28
2018-10-02T00:28:37.664Z,100405.11
2018-10-02T00:33:40.922Z,100403.91
2018-10-02T00:38:44.188Z,100400.95
2018-10-02T00:43:47.448Z,100405.70
2018-10-02T00:48:50.707Z,100417.17
2018-10-02T00:53:53.964Z,100414.66
2018-10-02T00:58:57.220Z,100412.08
2018-10-02T01:04:00.503Z,100416.23
2018-10-02T01:09:04.769Z,100416.61
2018-10-02T01:14:08.033Z,100412.14
2018-10-02T01:19:11.302Z,100418.82
2018-10-02T01:24:14.563Z,100411.28
2018-10-02T01:29:17.835Z,100411.73
2018-10-02T01:34:21.087Z,100413.27
2018-10-02T01:39:24.344Z,100414.06
2018-10-02T01:44:27.611Z,100414.72
2018-10-02T01:49:30.915Z,100418.22
2018-10-02T01:54:34.172Z,100426.61
2018-10-02T01:59:37.559Z,100423.83
2018-10-02T02:04:40.815Z,100427.99
2018-10-02T02:09:44.111Z,100422.06
2018-10-02T02:14:47.371Z,100423.64
2018-10-02T02:19:50.631Z,100426.83
2018-10-02T02:24:53.887Z,100424.84
2018-10-02T02:29:57.156Z,100429.79
2018-10-02T02:35:00.427Z,100440.47
2018-10-02T02:40:03.892Z,100444.25
2018-10-02T02:45:07.177Z,100445.04
2018-10-02T02:50:15.943Z,100452.83
2018-10-02T02:55:19.251Z,100446.48
2018-10-02T03:00:22.523Z,100440.34
2018-10-02T03:05:25.880Z,100440.34
2018-10-02T03:10:29.144Z,100436.78
2018-10-02T03:15:32.543Z,100429.66
2018-10-02T03:20:35.810Z,100429.28
2018-10-02T03:25:39.084Z,100425.12
2018-10-02T03:30:42.424Z,100438.20
2018-10-02T03:35:45.707Z,100436.63
2018-10-02T03:40:48.960Z,100440.97
2018-10-02T03:45:52.266Z,100436.81
2018-10-02T03:50:55.535Z,100433.44
2018-10-02T03:55:58.803Z,100423.92
2018-10-02T04:01:02.070Z,100422.16
2018-10-02T04:06:05.335Z,100422.12
2018-10-02T04:11:08.763Z,100421.78
2018-10-02T04:16:12.044Z,100428.55
2018-10-02T04:21:19.270Z,100430.29
2018-10-02T04:26:22.531Z,100436.44
2018-10-02T04:31:25.799Z,100433.72
2018-10-02T04:36:29.203Z,100438.48
2018-10-02T04:41:32.480Z,100446.58
2018-10-02T04:46:35.760Z,100452.28
2018-10-02T04:51:39.027Z,100450.77
2018-10-02T04:56:42.287Z,100453.92
2018-10-02T05:01:45.547Z,100454.70
2018-10-02T05:06:48.814Z,100456.91
2018-10-02T05:11:52.072Z,100459.69
2018-10-02T05:16:55.399Z,100457.70
2018-10-02T05:21:58.656Z,100462.27
2018-10-02T05:27:01.956Z,100468.00
2018-10-02T05:32:05.211Z,100463.84
2018-10-02T05:37:08.607Z,100466.84
2018-10-02T05:42:11.899Z,100472.81
2018-10-02T05:47:15.161Z,100475.59
2018-10-02T05:52:18.424Z,100478.31
2018-10-02T05:57:21.699Z,100478.12
2018-10-02T06:02:27.347Z,100487.80
2018-10-02T06:07:30.616Z,100490.00
2018-10-02T06:12:33.893Z,100486.44
2018-10-02T06:17:37.173Z,100492.95
2018-10-02T06:22:40.440Z,100489.38
2018-10-02T06:27:43.711Z,100491.77
2018-10-02T06:32:47.038Z,100487.80
2018-10-02T06:37:50.272Z,100487.98
2018-10-02T06:42:53.576Z,100489.18
2018-10-02T06:47:56.869Z,100496.71
2018-10-02T06:53:00.459Z,100510.88
2018-10-02T06:58:03.750Z,100503.66
2018-10-02T07:03:07.260Z,100507.87
2018-10-02T07:08:10.559Z,100507.84
2018-10-02T07:13:13.844Z,100510.97
2018-10-02T07:18:17.133Z,100499.76
2018-10-02T07:23:20.539Z,100492.27
2018-10-02T07:28:23.907Z,100498.20
2018-10-02T07:33:27.184Z,100505.62
2018-10-02T07:38:30.611Z,100495.44
2018-10-02T07:43:33.909Z,100487.25
2018-10-02T07:48:37.201Z,100486.73
2018-10-02T07:53:40.555Z,100481.37
2018-10-02T07:58:43.792Z,100483.72
2018-10-02T08:03:47.178Z,100484.15
2018-10-02T08:08:50.525Z,100477.97
2018-10-02T08:13:53.802Z,100473.36
2018-10-02T08:18:57.104Z,100480.48
2018-10-02T08:24:00.455Z,100485.59
2018-10-02T08:29:03.739Z,100474.67
2018-10-02T08:34:07.029Z,100475.84
2018-10-02T08:39:11.121Z,100462.98
2018-10-02T08:44:14.400Z,100442.72
2018-10-02T08:49:17.682Z,100424.92
2018-10-02T08:54:20.968Z,100424.52
2018-10-02T08:59:24.257Z,100426.07
2018-10-02T09:04:27.624Z,100425.69
2018-10-02T09:09:30.921Z,100418.27
2018-10-02T09:14:34.199Z,100411.94
2018-10-02T09:19:37.487Z,100411.94
2018-10-02T09:24:40.831Z,100394.63
2018-10-02T09:29:49.602Z,100387.05
2018-10-02T09:34:58.356Z,100395.68
2018-10-02T09:40:06.990Z,100393.51
2018-10-02T09:45:10.209Z,100385.54
2018-10-02T09:50:13.494Z,100378.80
2018-10-02T09:55:16.784Z,100386.73
2018-10-02T10:00:26.299Z,100389.70
2018-10-02T10:05:29.589Z,100385.16
2018-10-02T10:10:32.948Z,100389.89
2018-10-02T10:15:36.188Z,100374.27
2018-10-02T10:20:39.472Z,100386.27
2018-10-02T10:25:42.751Z,100374.98
2018-10-02T10:30:46.033Z,100369.19
2018-10-02T10:35:49.320Z,100364.44
2018-10-02T10:40:52.642Z,100374.14
2018-10-02T10:45:55.932Z,100361.50
2018-10-02T10:50:59.229Z,100365.34
2018-10-02T10:56:02.530Z,100359.39
2018-10-02T11:01:05.849Z,100354.01
2018-10-02T11:06:09.140Z,100344.90
2018-10-02T11:11:12.440Z,100336.36
2018-10-02T11:16:15.733Z,100338.05
2018-10-02T11:21:19.043Z,100329.55
2018-10-02T11:26:22.327Z,100323.62
2018-10-02T11:31:25.698Z,100322.43
2018-10-02T11:36:28.924Z,100321.64
2018-10-02T11:41:32.236Z,100315.03
2018-10-02T11:46:35.548Z,100307.47
2018-10-02T11:51:39.158Z,100305.00
2018-10-02T11:56:42.444Z,100294.41
2018-10-02T12:01:45.807Z,100297.55
2018-10-02T12:06:49.156Z,100284.10
2018-10-02T12:11:52.436Z,100276.86
2018-10-02T12:16:55.736Z,100259.45
2018-10-02T12:21:59.048Z,100244.08
2018-10-02T12:27:02.341Z,100238.77
2018-10-02T12:32:05.624Z,100230.63
2018-10-02T12:37:08.917Z,100224.19
2018-10-02T12:42:13.743Z,100217.48
2018-10-02T12:47:17.181Z,100217.92
2018-10-02T12:52:20.485Z,100202.67
2018-10-02T12:57:23.794Z,100201.30
2018-10-02T13:02:27.079Z,100197.85
2018-10-02T13:07:30.404Z,100189.91
2018-10-02T13:12:33.697Z,100178.94
2018-10-02T13:17:36.989Z,100157.12
2018-10-02T13:22:40.280Z,100147.42
2018-10-02T13:27:43.601Z,100155.95
2018-10-02T13:32:46.900Z,100136.84
2018-10-02T13:37:50.242Z,100131.66
2018-10-02T13:42:53.548Z,100122.02
2018-10-02T13:47:56.849Z,100115.55
2018-10-02T13:53:00.280Z,100112.07
2018-10-02T13:58:03.644Z,100114.66
2018-10-02T14:03:06.949Z,100103.08
2018-10-02T14:08:10.450Z,100092.35
2018-10-02T14:13:13.740Z,100096.52
2018-10-02T14:18:17.041Z,100082.64
2018-10-02T14:23:20.352Z,100083.43
2018-10-02T14:34:01.348Z,100062.22
2018-10-02T14:39:06.849Z,100058.44
2018-10-02T14:44:10.780Z,100062.18
2018-10-02T14:49:14.120Z,100053.26
2018-10-02T14:54:17.629Z,100044.15
2018-10-02T14:59:21.536Z,100037.82
2018-10-02T15:04:24.873Z,100036.25
2018-10-02T15:09:28.149Z,100034.63
2018-10-02T15:14:31.428Z,100019.19
2018-10-02T15:19:34.864Z,100017.56
2018-10-02T15:24:38.592Z,100009.66
2018-10-02T15:29:41.978Z,100004.72
2018-10-02T15:34:45.272Z,100000.56
2018-10-02T15:39:48.662Z,99986.27
2018-10-02T15:44:52.012Z,99986.88
2018-10-02T15:49:55.448Z,99985.13
2018-10-02T15:54:58.707Z,99986.27
2018-10-02T16:00:03.075Z,99979.94
2018-10-02T16:05:06.532Z,99979.25
2018-10-02T16:10:09.813Z,99971.62
2018-10-02T16:15:13.266Z,99975.54
2018-10-02T16:20:16.837Z,99980.30
2018-10-02T16:25:20.260Z,99982.30
2018-10-02T16:30:23.528Z,99986.03
2018-10-02T16:35:26.805Z,99991.39
2018-10-02T16:40:30.084Z,100001.98
2018-10-02T16:45:33.398Z,99994.69
2018-10-02T16:50:36.663Z,99999.90
2018-10-02T16:55:39.929Z,100001.62
2018-10-02T17:00:43.228Z,100003.37
2018-10-02T17:05:46.707Z,100002.41
2018-10-02T17:10:49.999Z,100008.67
2018-10-02T17:15:53.711Z,100013.95
2018-10-02T17:20:57.969Z,100010.34
2018-10-02T17:26:02.319Z,100006.96
2018-10-02T17:31:06.450Z,100010.37
2018-10-02T17:36:10.099Z,100006.45
2018-10-02T17:41:13.388Z,100005.06
2018-10-02T17:46:17.532Z,100015.08
2018-10-02T17:51:20.855Z,100014.59
2018-10-02T17:56:24.281Z,100018.57
2018-10-02T18:01:27.644Z,100027.20
2018-10-02T18:06:31.080Z,100021.98
2018-10-02T18:11:34.385Z,100026.41
2018-10-02T18:16:38.125Z,100021.34
2018-10-02T18:21:41.784Z,100028.73
2018-10-02T18:26:45.052Z,100022.64
2018-10-02T18:31:50.026Z,100030.36
2018-10-02T18:36:53.781Z,100033.80
2018-10-02T18:41:57.147Z,100039.34
2018-10-02T18:47:00.460Z,100043.87
2018-10-02T18:52:03.752Z,100035.63
2018-10-02T18:57:08.163Z,100024.21
2018-10-02T19:02:11.573Z,100030.87
2018-10-02T19:07:15.021Z,100026.77
2018-10-02T19:12:19.764Z,100028.57
2018-10-02T19:17:23.033Z,100020.07
2018-10-02T19:22:26.513Z,100025.47
2018-10-02T19:27:29.928Z,100027.19
2018-10-02T19:32:33.252Z,100027.45
2018-10-02T19:37:41.944Z,100023.11
2018-10-02T19:42:45.153Z,100018.95
2018-10-02T19:47:48.415Z,100021.91
2018-10-02T19:52:53.123Z,100015.39
2018-10-02T19:57:57.347Z,100010.20
2018-10-02T20:03:01.183Z,100015.99
2018-10-02T20:08:04.697Z,100019.38
2018-10-02T20:13:08.003Z,100014.42
2018-10-02T20:18:11.752Z,100019.80
2018-10-02T20:23:15.296Z,100016.84
2018-10-02T20:28:18.577Z,100019.97
2018-10-02T20:33:22.100Z,100025.16
2018-10-02T20:38:25.611Z,100027.59
2018-10-02T20:43:28.936Z,100037.64
2018-10-02T20:48:32.200Z,100037.40
2018-10-02T20:53:35.733Z,100043.83
2018-10-02T20:58:39.735Z,100043.73
2018-10-02T21:03:42.995Z,100043.91
2018-10-02T21:08:46.675Z,100054.83
2018-10-02T21:13:49.989Z,100039.98
2018-10-02T21:18:53.252Z,100044.94
2018-10-02T21:23:56.588Z,100046.50
2018-10-02T21:29:01.399Z,100030.89
2018-10-02T21:34:05.564Z,100032.03
2018-10-02T21:39:09.444Z,100030.28
2018-10-02T21:44:12.736Z,100032.88
2018-10-02T21:49:16.180Z,100027.75
2018-10-02T21:54:19.629Z,100017.44
2018-10-02T21:59:23.099Z,100014.84
2018-10-02T22:04:26.553Z,100015.21
2018-10-02T22:09:29.849Z,100010.35
2018-10-02T22:14:33.422Z,99999.26
2018-10-02T22:19:36.764Z,100001.58
2018-10-02T22:24:40.029Z,100007.91
2018-10-02T22:29:43.326Z,100009.30
2018-10-02T22:34:46.615Z,100004.95
2018-10-02T22:39:49.909Z,100007.58
2018-10-02T22:44:53.398Z,100007.13
2018-10-02T22:49:56.796Z,99994.47
2018-10-02T22:55:00.415Z,99997.09
2018-10-02T23:00:04.172Z,99997.88
2018-10-02T23:05:07.460Z,100002.03
2018-10-02T23:10:10.733Z,100000.47
2018-10-02T23:15:14.000Z,100001.06
2018-10-02T23:20:17.264Z,100016.84
2018-10-02T23:25:20.537Z,100003.42
2018-10-02T23:30:23.800Z,100023.59
2018-10-02T23:35:27.121Z,100021.45
2018-10-02T23:40:30.495Z,100032.54
2018-10-02T23:45:33.756Z,100032.95
2018-10-02T23:50:37.115Z,100039.89
2018-10-02T23:55:40.421Z,100043.45
